Time;durP1;ratioP1;P1;durP2;ratioP2;P2;SDS_P1;SDS_P2;PMS_P1;PMS_P2;Temp;Humidity;BMP_temperature;BMP_pressure;BME280_temperature;BME280_humidity;BME280_pressure;Samples;Min_cycle;Max_cycle;Signal;HPM_P1;HPM_P2
2021/03/03 00:00:53;;;;;;;6.50;5.80;;;18.90;62.80;;;;;;5109561;28;20107;-35
2021/03/03 00:03:19;;;;;;;6.70;5.82;;;18.90;62.80;;;;;;5108695;28;20497;-36
2021/03/03 00:05:45;;;;;;;7.00;5.63;;;19.00;62.80;;;;;;5111140;28;20036;-35
2021/03/03 00:08:10;;;;;;;6.38;5.97;;;19.00;62.80;;;;;;5110918;28;20099;-37
2021/03/03 00:10:36;;;;;;;6.03;5.43;;;18.90;62.90;;;;;;5108091;28;20043;-36
2021/03/03 00:13:02;;;;;;;6.95;6.25;;;18.90;62.90;;;;;;5108194;28;20088;-33
2021/03/03 00:15:28;;;;;;;6.57;5.97;;;18.90;62.90;;;;;;5108616;28;20084;-33
2021/03/03 00:17:53;;;;;;;6.93;6.32;;;18.90;62.90;;;;;;5109944;28;20061;-32
2021/03/03 00:20:19;;;;;;;6.88;6.20;;;18.90;62.80;;;;;;5111222;28;20038;-36
2021/03/03 00:22:44;;;;;;;5.85;5.10;;;18.90;62.80;;;;;;5108585;28;20023;-34
2021/03/03 00:25:10;;;;;;;6.63;6.03;;;18.90;63.00;;;;;;5109873;28;20149;-34
2021/03/03 00:27:36;;;;;;;6.18;5.72;;;18.90;63.10;;;;;;5108144;28;20466;-32
2021/03/03 00:30:01;;;;;;;6.43;5.93;;;18.80;63.00;;;;;;5109185;28;20035;-34
2021/03/03 00:32:27;;;;;;;6.55;5.95;;;18.80;63.00;;;;;;5108996;28;20123;-38
2021/03/03 00:34:52;;;;;;;6.97;6.43;;;18.80;62.90;;;;;;5105802;28;20441;-36
2021/03/03 00:37:18;;;;;;;5.35;4.95;;;18.80;62.80;;;;;;5090436;28;20028;-29
2021/03/03 00:39:44;;;;;;;5.35;4.88;;;18.90;62.90;;;;;;5088071;28;20073;-36
2021/03/03 00:42:10;;;;;;;5.75;5.25;;;18.90;62.70;;;;;;5091323;28;20024;-32
2021/03/03 00:44:36;;;;;;;5.50;5.10;;;18.90;62.50;;;;;;5092416;28;20093;-29
2021/03/03 00:47:01;;;;;;;5.88;5.30;;;18.90;62.70;;;;;;5096719;28;20144;-33
2021/03/03 00:49:27;;;;;;;5.68;5.18;;;18.90;62.70;;;;;;5102541;28;20431;-36
2021/03/03 00:51:52;;;;;;;6.05;4.80;;;18.90;62.70;;;;;;5092364;28;20043;-39
2021/03/03 00:54:19;;;;;;;5.40;5.00;;;18.90;62.60;;;;;;5091123;28;20498;-33
2021/03/03 00:56:44;;;;;;;5.30;5.00;;;18.80;62.60;;;;;;5102236;28;20051;-39
2021/03/03 00:59:10;;;;;;;5.72;5.22;;;18.80;62.70;;;;;;5097471;28;20073;-32
2021/03/03 01:01:36;;;;;;;5.05;4.65;;;18.80;63.60;;;;;;5098834;28;20478;-36
2021/03/03 01:04:01;;;;;;;6.00;5.40;;;18.80;62.80;;;;;;5102178;28;20036;-36
2021/03/03 01:06:27;;;;;;;5.75;5.38;;;18.80;62.80;;;;;;5094804;28;20031;-37
2021/03/03 01:08:52;;;;;;;5.75;5.30;;;18.80;62.80;;;;;;5095617;28;20016;-34
2021/03/03 01:11:18;;;;;;;4.93;4.53;;;18.80;62.80;;;;;;5096098;28;20500;-44
2021/03/03 01:13:44;;;;;;;5.97;5.55;;;18.80;62.70;;;;;;5095309;28;20031;-36
2021/03/03 01:16:09;;;;;;;4.97;4.50;;;18.80;62.70;;;;;;5096664;28;20022;-35
2021/03/03 01:18:35;;;;;;;5.35;4.95;;;18.80;62.80;;;;;;5094635;28;20032;-35
2021/03/03 01:21:00;;;;;;;5.00;4.70;;;18.80;62.70;;;;;;5095114;28;20424;-36
2021/03/03 01:23:26;;;;;;;5.05;4.65;;;18.80;62.70;;;;;;5105642;28;20512;-36
2021/03/03 01:25:52;;;;;;;4.70;4.35;;;18.80;62.70;;;;;;5096371;28;20061;-33
2021/03/03 01:28:17;;;;;;;4.72;4.43;;;18.80;62.80;;;;;;5101292;28;20506;-34
2021/03/03 01:30:43;;;;;;;5.13;4.72;;;18.80;62.70;;;;;;5097172;28;20036;-33
2021/03/03 01:33:08;;;;;;;6.82;5.15;;;18.80;62.80;;;;;;5106293;28;20042;-35
2021/03/03 01:35:34;;;;;;;4.80;4.40;;;18.70;62.80;;;;;;5095359;28;20528;-35
2021/03/03 01:37:59;;;;;;;4.57;4.28;;;18.80;62.90;;;;;;5095033;28;20024;-36
2021/03/03 01:40:25;;;;;;;5.03;4.68;;;18.70;63.00;;;;;;5096916;28;20399;-34
2021/03/03 01:42:54;;;;;;;4.88;4.57;;;18.70;63.00;;;;;;5096683;28;20051;-41
2021/03/03 01:45:20;;;;;;;4.97;4.57;;;18.70;63.60;;;;;;5097472;28;20035;-35
2021/03/03 01:47:46;;;;;;;4.80;4.40;;;18.60;63.20;;;;;;5095056;28;20032;-37
2021/03/03 01:50:11;;;;;;;4.72;4.43;;;18.60;63.50;;;;;;5102046;28;20046;-33
2021/03/03 01:52:39;;;;;;;4.97;4.63;;;18.60;63.70;;;;;;5094341;28;20553;-34
2021/03/03 01:55:05;;;;;;;5.10;4.55;;;18.60;63.80;;;;;;5095975;28;20042;-35
2021/03/03 01:57:31;;;;;;;4.60;4.30;;;18.60;63.80;;;;;;5094408;28;20020;-35
2021/03/03 01:59:56;;;;;;;5.35;4.20;;;18.60;64.10;;;;;;5093861;28;20066;-36
2021/03/03 02:02:24;;;;;;;4.95;4.53;;;18.60;64.30;;;;;;5095365;28;20048;-32
2021/03/03 02:04:51;;;;;;;4.55;4.18;;;18.60;64.50;;;;;;5094623;28;20016;-32
2021/03/03 02:07:38;;;;;;;4.90;4.50;;;18.60;64.40;;;;;;5101403;28;20035;-38
2021/03/03 02:10:19;;;;;;;4.97;4.68;;;18.60;64.40;;;;;;5102728;28;20119;-36
2021/03/03 02:12:48;;;;;;;5.05;4.65;;;18.60;64.60;;;;;;5104001;28;20035;-36
2021/03/03 02:15:14;;;;;;;4.40;4.10;;;18.50;64.40;;;;;;5094524;28;20055;-36
2021/03/03 02:17:40;;;;;;;4.70;4.40;;;18.50;64.30;;;;;;5092562;28;20082;-42
2021/03/03 02:20:07;;;;;;;4.47;4.22;;;18.50;64.30;;;;;;5098568;28;20379;-36
2021/03/03 02:22:51;;;;;;;5.07;4.78;;;18.60;64.50;;;;;;5107480;28;20023;-36
2021/03/03 02:25:27;;;;;;;4.80;4.40;;;18.60;64.70;;;;;;5110922;28;20062;-32
2021/03/03 02:27:53;;;;;;;4.57;4.28;;;18.60;64.70;;;;;;5094991;28;20122;-32
2021/03/03 02:30:19;;;;;;;4.47;4.18;;;18.60;64.60;;;;;;5099565;28;20115;-31
2021/03/03 02:32:45;;;;;;;4.47;4.18;;;18.60;64.40;;;;;;5105010;28;20562;-34
2021/03/03 02:35:11;;;;;;;4.43;4.13;;;18.60;64.50;;;;;;5095046;28;20028;-37
2021/03/03 02:37:37;;;;;;;5.00;4.70;;;18.50;64.40;;;;;;5097171;28;20024;-33
2021/03/03 02:40:05;;;;;;;4.43;4.03;;;18.50;64.50;;;;;;5095523;28;20084;-34
2021/03/03 02:42:31;;;;;;;5.35;4.95;;;18.50;64.60;;;;;;5105662;28;20020;-36
2021/03/03 02:44:57;;;;;;;4.60;4.10;;;18.50;64.50;;;;;;5075072;28;20024;-37
2021/03/03 02:47:22;;;;;;;4.63;4.32;;;18.50;64.40;;;;;;5096919;28;20062;-33
2021/03/03 02:49:48;;;;;;;4.50;4.10;;;18.40;64.40;;;;;;5078283;28;20020;-36
2021/03/03 02:52:13;;;;;;;4.95;4.45;;;18.50;64.50;;;;;;5078681;28;20397;-36
2021/03/03 02:54:39;;;;;;;4.57;4.28;;;18.40;64.50;;;;;;5094900;28;20032;-36
2021/03/03 02:57:05;;;;;;;5.20;4.80;;;18.50;64.40;;;;;;5094045;28;20505;-31
2021/03/03 02:59:37;;;;;;;4.72;4.22;;;18.50;64.60;;;;;;5094889;28;20020;-43
2021/03/03 03:02:04;;;;;;;4.30;4.05;;;18.40;64.50;;;;;;5102272;28;20036;-35
2021/03/03 03:04:33;;;;;;;5.00;4.53;;;18.40;64.50;;;;;;5099469;28;20028;-35
2021/03/03 03:07:00;;;;;;;4.32;4.10;;;18.40;64.50;;;;;;5094656;28;20103;-38
2021/03/03 03:09:25;;;;;;;4.95;4.53;;;18.40;64.50;;;;;;5093476;28;20039;-37
2021/03/03 03:11:52;;;;;;;4.60;4.30;;;18.40;64.60;;;;;;5095717;28;20035;-34
2021/03/03 03:14:19;;;;;;;4.72;4.20;;;18.40;64.60;;;;;;5095087;28;20028;-33
2021/03/03 03:16:46;;;;;;;4.30;4.00;;;18.40;64.70;;;;;;5100111;28;20023;-37
2021/03/03 03:19:14;;;;;;;4.55;4.25;;;18.40;64.70;;;;;;5097879;28;20020;-36
2021/03/03 03:21:41;;;;;;;4.63;4.22;;;18.40;64.50;;;;;;5097487;28;20046;-35
2021/03/03 03:24:07;;;;;;;4.22;4.00;;;18.40;64.60;;;;;;5088220;28;20047;-35
2021/03/03 03:26:33;;;;;;;5.45;4.07;;;18.40;64.70;;;;;;5093062;28;20062;-33
2021/03/03 03:28:58;;;;;;;4.43;4.03;;;18.30;64.50;;;;;;5095083;28;20109;-33
2021/03/03 03:31:24;;;;;;;4.22;3.92;;;18.40;64.60;;;;;;5083976;28;20084;-31
2021/03/03 03:33:50;;;;;;;3.95;3.75;;;18.30;64.80;;;;;;5102480;28;20085;-34
2021/03/03 03:36:15;;;;;;;4.40;4.10;;;18.30;64.80;;;;;;5092422;28;20070;-40
2021/03/03 03:38:41;;;;;;;4.22;3.92;;;18.40;64.90;;;;;;5098630;28;20026;-35
2021/03/03 03:41:06;;;;;;;4.10;3.80;;;18.40;65.10;;;;;;5095040;28;20091;-36
2021/03/03 03:43:33;;;;;;;3.92;3.63;;;18.40;65.10;;;;;;5065709;28;20028;-34
2021/03/03 03:45:59;;;;;;;4.22;3.95;;;18.40;65.10;;;;;;5096336;28;20028;-34
2021/03/03 03:48:25;;;;;;;3.80;3.60;;;18.40;65.00;;;;;;5098131;28;20043;-39
2021/03/03 03:50:51;;;;;;;3.90;3.60;;;18.40;65.20;;;;;;5074699;28;20505;-31
2021/03/03 03:53:17;;;;;;;4.50;4.10;;;18.30;65.10;;;;;;5097558;28;20020;-35
2021/03/03 03:55:43;;;;;;;3.97;3.67;;;18.30;65.00;;;;;;5086134;28;20098;-36
2021/03/03 03:58:08;;;;;;;4.10;3.80;;;18.30;65.20;;;;;;5105588;28;20489;-33
2021/03/03 04:00:34;;;;;;;4.18;3.88;;;18.30;65.10;;;;;;5107929;28;20085;-38
2021/03/03 04:02:59;;;;;;;3.63;3.40;;;18.30;65.20;;;;;;5110002;28;20020;-32
2021/03/03 04:05:25;;;;;;;4.50;3.72;;;18.30;65.10;;;;;;5110977;28;20043;-35
2021/03/03 04:07:51;;;;;;;4.05;3.75;;;18.30;65.00;;;;;;5108536;28;20041;-35
2021/03/03 04:10:21;;;;;;;4.30;3.90;;;18.30;65.20;;;;;;5109106;28;20043;-39
2021/03/03 04:12:47;;;;;;;4.10;3.80;;;18.30;65.20;;;;;;5109350;28;20037;-36
2021/03/03 04:15:13;;;;;;;4.07;3.78;;;18.40;65.60;;;;;;5108504;28;20111;-36
2021/03/03 04:17:39;;;;;;;4.13;3.83;;;18.40;65.50;;;;;;5112676;28;20032;-34
2021/03/03 04:20:05;;;;;;;4.28;4.00;;;18.40;65.70;;;;;;5108250;28;20028;-32
2021/03/03 04:22:31;;;;;;;3.78;3.47;;;18.40;65.70;;;;;;5101966;28;20114;-37
2021/03/03 04:24:57;;;;;;;3.38;3.08;;;18.30;65.50;;;;;;5107648;28;20102;-38
2021/03/03 04:27:23;;;;;;;3.42;3.22;;;18.40;65.40;;;;;;5097512;28;20027;-36
2021/03/03 04:29:48;;;;;;;3.47;3.25;;;18.50;65.00;;;;;;5102311;28;20060;-34
2021/03/03 04:32:14;;;;;;;3.60;3.30;;;18.40;65.10;;;;;;5113090;28;20405;-33
2021/03/03 04:34:39;;;;;;;3.50;3.30;;;18.40;65.30;;;;;;5114076;28;20085;-37
2021/03/03 04:37:05;;;;;;;3.30;3.10;;;18.40;65.40;;;;;;5112926;28;20035;-39
2021/03/03 04:39:30;;;;;;;3.45;3.25;;;18.40;65.30;;;;;;5099500;28;20023;-34
2021/03/03 04:41:56;;;;;;;3.40;3.10;;;18.50;65.00;;;;;;5113832;28;20055;-36
2021/03/03 04:44:21;;;;;;;3.40;3.13;;;18.50;64.80;;;;;;5113716;28;20139;-38
2021/03/03 04:46:47;;;;;;;3.38;3.20;;;18.50;65.00;;;;;;5113421;28;20023;-38
2021/03/03 04:49:13;;;;;;;3.83;3.58;;;18.50;65.00;;;;;;5111178;28;20092;-34
2021/03/03 04:51:38;;;;;;;6.40;3.55;;;18.50;65.20;;;;;;5111709;28;20036;-37
2021/03/03 04:54:04;;;;;;;3.70;3.40;;;18.40;65.40;;;;;;5108052;28;20509;-34
2021/03/03 04:56:29;;;;;;;3.42;3.22;;;18.40;65.70;;;;;;5113727;28;20032;-33
2021/03/03 04:58:55;;;;;;;3.60;3.40;;;18.40;65.70;;;;;;5108285;28;20103;-34
2021/03/03 05:01:21;;;;;;;3.33;3.13;;;18.30;65.80;;;;;;5112719;28;20413;-36
2021/03/03 05:03:46;;;;;;;3.60;3.35;;;18.30;65.90;;;;;;5111164;28;20012;-33
2021/03/03 05:06:12;;;;;;;3.38;3.03;;;18.30;65.90;;;;;;5111543;28;20032;-36
2021/03/03 05:08:37;;;;;;;3.53;3.22;;;18.30;65.90;;;;;;5109063;28;20035;-33
2021/03/03 05:11:03;;;;;;;3.38;3.17;;;18.30;65.70;;;;;;5112063;28;20520;-37
2021/03/03 05:13:29;;;;;;;3.50;3.30;;;18.30;65.90;;;;;;5108883;28;20031;-33
2021/03/03 05:15:54;;;;;;;3.50;3.22;;;18.30;65.90;;;;;;5111810;28;20031;-37
2021/03/03 05:18:20;;;;;;;3.33;3.13;;;18.30;65.90;;;;;;5112703;28;20543;-35
2021/03/03 05:20:45;;;;;;;3.30;3.10;;;18.30;65.90;;;;;;5114468;28;20031;-35
2021/03/03 05:23:11;;;;;;;3.90;3.50;;;18.30;65.90;;;;;;5110530;28;20027;-32
2021/03/03 05:25:37;;;;;;;3.85;3.55;;;18.30;65.90;;;;;;5103165;28;20089;-32
2021/03/03 05:28:02;;;;;;;3.92;3.70;;;18.20;65.70;;;;;;5101099;28;20061;-35
2021/03/03 05:30:28;;;;;;;3.42;3.22;;;18.20;65.80;;;;;;5098278;28;20035;-33
2021/03/03 05:32:54;;;;;;;3.53;3.33;;;18.20;65.70;;;;;;5106992;28;20071;-36
2021/03/03 05:35:19;;;;;;;4.10;3.90;;;18.30;65.90;;;;;;5112829;28;20040;-32
2021/03/03 05:37:45;;;;;;;3.70;3.45;;;18.20;65.90;;;;;;5110289;28;20500;-34
2021/03/03 05:40:12;;;;;;;4.13;3.60;;;18.20;65.90;;;;;;5116440;27;20136;-32
2021/03/03 05:42:37;;;;;;;3.60;3.30;;;18.20;65.70;;;;;;5110814;28;20020;-31
2021/03/03 05:45:04;;;;;;;3.28;3.08;;;18.20;65.60;;;;;;5111915;28;20035;-36
2021/03/03 05:47:33;;;;;;;3.50;3.20;;;18.20;65.70;;;;;;5115070;28;20024;-37
2021/03/03 05:49:58;;;;;;;3.40;3.20;;;18.20;65.70;;;;;;5110115;28;20069;-38
2021/03/03 05:52:24;;;;;;;3.08;2.83;;;18.20;65.60;;;;;;5108816;28;20031;-30
2021/03/03 05:54:49;;;;;;;3.10;2.90;;;18.30;65.60;;;;;;5084463;28;20499;-31
2021/03/03 05:57:15;;;;;;;3.60;3.40;;;18.30;65.60;;;;;;5109120;28;20028;-36
2021/03/03 05:59:41;;;;;;;3.30;3.10;;;18.30;65.60;;;;;;5096851;28;20038;-29
2021/03/03 06:02:06;;;;;;;3.47;3.28;;;18.30;65.50;;;;;;5109017;28;20030;-36
2021/03/03 06:04:32;;;;;;;3.50;3.30;;;18.30;65.50;;;;;;5107467;28;20509;-34
2021/03/03 06:06:58;;;;;;;3.13;2.92;;;18.30;65.50;;;;;;5094154;28;20393;-30
2021/03/03 06:09:23;;;;;;;3.13;2.92;;;18.30;65.40;;;;;;5102144;28;20028;-31
2021/03/03 06:11:49;;;;;;;2.88;2.78;;;18.30;65.40;;;;;;5112340;28;20096;-33
2021/03/03 06:14:15;;;;;;;3.13;2.92;;;18.30;65.50;;;;;;5111132;28;20016;-33
2021/03/03 06:16:40;;;;;;;2.90;2.70;;;18.30;65.50;;;;;;5110437;28;20023;-30
2021/03/03 06:19:06;;;;;;;2.90;2.70;;;18.30;65.50;;;;;;5110051;28;20103;-34
2021/03/03 06:21:32;;;;;;;2.97;2.80;;;18.20;65.50;;;;;;5110801;28;20448;-34
2021/03/03 06:24:05;;;;;;;3.20;3.00;;;18.20;65.60;;;;;;5106573;28;20027;-32
2021/03/03 06:26:30;;;;;;;3.25;3.05;;;18.20;65.50;;;;;;5111724;27;20030;-33
2021/03/03 06:28:56;;;;;;;2.92;2.70;;;18.30;65.40;;;;;;5109540;28;20047;-29
2021/03/03 06:31:24;;;;;;;3.33;3.03;;;18.30;65.30;;;;;;5109603;28;20100;-30
2021/03/03 06:33:51;;;;;;;3.17;2.92;;;18.30;65.30;;;;;;5111514;28;20028;-33
2021/03/03 06:36:28;;;;;;;3.45;3.00;;;18.20;65.50;;;;;;5110320;28;20062;-30
2021/03/03 06:38:54;;;;;;;3.03;2.83;;;18.20;65.60;;;;;;5098826;28;20034;-33
2021/03/03 06:41:20;;;;;;;3.40;3.10;;;18.20;65.50;;;;;;5110616;28;20506;-36
2021/03/03 06:43:56;;;;;;;3.08;2.88;;;18.20;65.50;;;;;;5109808;28;20038;-35
2021/03/03 06:46:21;;;;;;;2.70;2.50;;;18.20;65.50;;;;;;5109785;28;20032;-30
2021/03/03 06:48:47;;;;;;;3.22;3.03;;;18.20;65.40;;;;;;5105595;28;20438;-35
2021/03/03 06:51:34;;;;;;;2.80;2.70;;;18.10;65.50;;;;;;5105637;28;20603;-38
2021/03/03 06:54:06;;;;;;;3.42;3.20;;;18.20;65.70;;;;;;5106525;28;20039;-38
2021/03/03 06:56:32;;;;;;;3.40;3.10;;;18.20;65.60;;;;;;5104416;28;20059;-35
2021/03/03 06:59:27;;;;;;;3.50;3.20;;;18.20;65.60;;;;;;5107956;28;20070;-38
2021/03/03 07:02:08;;;;;;;2.90;2.70;;;18.20;65.50;;;;;;5101795;27;20047;-37
2021/03/03 07:04:35;;;;;;;3.28;3.08;;;18.20;65.50;;;;;;5110503;28;20151;-30
2021/03/03 07:07:09;;;;;;;2.90;2.70;;;18.20;65.60;;;;;;5099304;28;20054;-35
2021/03/03 07:09:42;;;;;;;3.03;2.83;;;18.20;65.40;;;;;;5111447;28;20111;-36
2021/03/03 07:12:12;;;;;;;2.75;2.60;;;18.20;65.50;;;;;;5097819;28;20038;-34
2021/03/03 07:14:39;;;;;;;3.25;2.63;;;18.20;65.40;;;;;;5112680;28;20524;-30
2021/03/03 07:17:13;;;;;;;3.08;2.88;;;18.10;65.50;;;;;;5102999;28;20085;-32
2021/03/03 07:19:38;;;;;;;;;;;18.10;65.50;;;;;;5107517;28;20019;-31
2021/03/03 07:22:07;;;;;;;3.17;2.90;;;18.10;65.40;;;;;;5109693;28;22461;-34
2021/03/03 07:24:32;;;;;;;3.15;2.95;;;18.10;65.70;;;;;;5106383;28;20020;-31
2021/03/03 07:26:58;;;;;;;3.10;2.90;;;18.10;65.50;;;;;;5090299;28;20042;-34
2021/03/03 07:29:24;;;;;;;3.45;3.25;;;18.10;65.40;;;;;;5112264;28;20050;-33
2021/03/03 07:31:49;;;;;;;3.08;2.88;;;18.10;65.40;;;;;;5099841;28;20067;-33
2021/03/03 07:34:15;;;;;;;3.20;3.00;;;18.10;65.50;;;;;;5102325;28;20048;-35
2021/03/03 07:36:41;;;;;;;2.83;2.67;;;18.10;65.60;;;;;;5093614;28;20032;-35
2021/03/03 07:39:07;;;;;;;3.17;2.97;;;18.10;65.50;;;;;;5095442;28;20032;-33
2021/03/03 07:41:43;;;;;;;2.78;2.67;;;18.10;65.60;;;;;;5105827;28;20068;-37
2021/03/03 07:44:15;;;;;;;3.08;2.88;;;18.10;65.50;;;;;;5109890;28;20156;-30
2021/03/03 07:46:41;;;;;;;2.95;2.75;;;18.10;65.60;;;;;;5108731;28;20027;-31
2021/03/03 07:49:11;;;;;;;2.65;2.55;;;18.10;65.80;;;;;;5102007;28;20032;-29
2021/03/03 07:51:37;;;;;;;3.13;2.95;;;18.10;65.80;;;;;;5099883;28;20145;-31
2021/03/03 07:54:03;;;;;;;3.15;2.95;;;18.10;65.50;;;;;;5107125;28;20110;-35
2021/03/03 07:56:29;;;;;;;2.92;2.70;;;18.10;66.50;;;;;;5111626;28;20077;-31
2021/03/03 07:58:55;;;;;;;2.58;2.38;;;18.10;65.80;;;;;;5107791;28;20020;-35
2021/03/03 08:01:20;;;;;;;2.63;2.53;;;18.10;65.70;;;;;;5092575;28;20019;-31
2021/03/03 08:03:47;;;;;;;3.30;3.10;;;18.10;65.80;;;;;;5104822;28;20551;-34
2021/03/03 08:06:22;;;;;;;3.20;2.90;;;18.10;65.70;;;;;;5109223;28;20122;-32
2021/03/03 08:09:06;;;;;;;3.75;2.80;;;18.10;65.60;;;;;;5111035;28;20042;-33
2021/03/03 08:11:39;;;;;;;2.90;2.67;;;18.10;65.50;;;;;;5109348;28;20081;-32
2021/03/03 08:14:29;;;;;;;2.67;2.58;;;18.10;65.40;;;;;;5108051;28;20031;-33
2021/03/03 08:16:56;;;;;;;3.20;2.90;;;18.10;65.60;;;;;;5108400;28;20031;-34
2021/03/03 08:19:21;;;;;;;2.95;2.83;;;18.10;65.60;;;;;;5109099;28;20055;-34
2021/03/03 08:21:47;;;;;;;3.00;2.80;;;18.10;65.50;;;;;;5105243;28;20425;-37
2021/03/03 08:24:37;;;;;;;2.78;2.58;;;18.10;65.50;;;;;;5100881;28;20024;-35
2021/03/03 08:27:22;;;;;;;2.53;2.42;;;18.10;65.30;;;;;;5106507;28;20095;-35
2021/03/03 08:30:10;;;;;;;2.95;2.75;;;18.10;65.00;;;;;;5103741;28;20055;-33
2021/03/03 08:32:36;;;;;;;2.83;2.63;;;18.20;64.70;;;;;;5124362;28;20038;-33
2021/03/03 08:35:03;;;;;;;2.72;2.53;;;18.10;64.90;;;;;;5107853;28;20068;-36
2021/03/03 08:37:30;;;;;;;3.22;3.03;;;18.10;64.70;;;;;;5111551;28;20032;-39
2021/03/03 08:39:55;;;;;;;3.13;2.92;;;18.10;65.00;;;;;;5104526;28;20068;-35
2021/03/03 08:42:32;;;;;;;3.53;3.22;;;18.10;65.20;;;;;;5098951;28;20486;-35
2021/03/03 08:45:08;;;;;;;2.92;2.72;;;18.10;65.20;;;;;;5097245;28;20489;-38
2021/03/03 08:47:46;;;;;;;2.95;2.67;;;18.10;65.30;;;;;;5096890;28;20012;-36
2021/03/03 08:50:27;;;;;;;2.95;2.40;;;18.10;65.90;;;;;;5095541;28;20093;-33
2021/03/03 08:53:21;;;;;;;3.33;3.13;;;18.00;65.60;;;;;;5096484;28;20055;-32
2021/03/03 08:55:47;;;;;;;3.53;3.30;;;18.10;65.80;;;;;;5102063;28;20027;-38
2021/03/03 08:58:37;;;;;;;2.95;2.75;;;18.10;65.90;;;;;;5099775;28;20043;-35
2021/03/03 09:01:03;;;;;;;3.03;2.83;;;18.10;65.50;;;;;;5103241;28;20043;-30
2021/03/03 09:03:29;;;;;;;3.13;2.83;;;18.10;65.30;;;;;;5097997;28;20031;-33
2021/03/03 09:05:55;;;;;;;3.13;2.92;;;18.20;64.90;;;;;;5094266;28;20050;-33
2021/03/03 09:08:21;;;;;;;3.25;2.90;;;18.20;65.00;;;;;;5096923;28;20024;-35
2021/03/03 09:10:47;;;;;;;2.88;2.67;;;18.20;65.20;;;;;;5098243;28;20039;-31
2021/03/03 09:13:29;;;;;;;3.05;2.85;;;18.20;65.10;;;;;;5095827;28;20041;-32
2021/03/03 09:16:04;;;;;;;3.55;3.35;;;18.20;65.00;;;;;;5098282;28;20020;-33
2021/03/03 09:18:30;;;;;;;3.20;3.00;;;18.20;65.60;;;;;;5107091;28;20040;-33
2021/03/03 09:21:09;;;;;;;2.70;2.50;;;18.20;64.90;;;;;;5107657;28;20077;-35
2021/03/03 09:23:35;;;;;;;2.97;2.78;;;18.30;64.60;;;;;;5101475;28;20059;-35
2021/03/03 09:26:01;;;;;;;3.13;2.92;;;18.30;64.40;;;;;;5100489;28;20024;-35
2021/03/03 09:28:40;;;;;;;2.70;2.60;;;18.30;64.40;;;;;;5109440;28;20059;-30
2021/03/03 09:31:05;;;;;;;4.45;3.20;;;18.30;64.40;;;;;;5111423;28;20039;-32
2021/03/03 09:33:31;;;;;;;3.40;3.10;;;18.30;64.60;;;;;;5106645;27;20046;-36
2021/03/03 09:35:57;;;;;;;3.00;2.80;;;18.30;64.70;;;;;;5112678;27;20024;-35
2021/03/03 09:38:23;;;;;;;3.10;2.90;;;18.30;64.60;;;;;;5106230;28;20039;-35
2021/03/03 09:40:49;;;;;;;3.03;2.83;;;18.30;64.70;;;;;;5109177;28;20031;-35
2021/03/03 09:43:15;;;;;;;2.90;2.70;;;18.20;64.60;;;;;;5110433;28;20024;-35
2021/03/03 09:45:41;;;;;;;3.45;3.15;;;18.20;64.90;;;;;;5106073;27;20023;-37
2021/03/03 09:48:06;;;;;;;2.88;2.67;;;18.20;64.70;;;;;;5120920;27;20402;-31
2021/03/03 09:50:34;;;;;;;3.00;2.80;;;18.20;64.90;;;;;;5118132;27;20024;-35
2021/03/03 09:52:59;;;;;;;3.30;3.10;;;18.20;65.70;;;;;;5101914;27;20032;-35
2021/03/03 09:55:27;;;;;;;3.08;2.88;;;18.20;64.70;;;;;;5102000;28;20023;-35
2021/03/03 09:57:53;;;;;;;3.50;3.17;;;18.20;64.70;;;;;;5101842;27;20030;-33
2021/03/03 10:00:20;;;;;;;3.35;3.05;;;18.20;64.80;;;;;;5101214;28;20012;-37
2021/03/03 10:02:51;;;;;;;2.67;2.58;;;18.30;64.50;;;;;;5111031;28;20024;-40
2021/03/03 10:05:24;;;;;;;2.72;2.63;;;18.40;64.40;;;;;;5103844;28;20501;-36
2021/03/03 10:08:03;;;;;;;2.75;2.65;;;18.30;64.90;;;;;;5106962;28;20035;-38
2021/03/03 10:10:53;;;;;;;3.53;3.22;;;18.30;65.10;;;;;;5109777;28;20061;-34
2021/03/03 10:13:22;;;;;;;3.05;2.88;;;18.30;65.20;;;;;;5100276;28;20020;-34
2021/03/03 10:15:48;;;;;;;11.80;3.20;;;18.30;65.50;;;;;;5102225;27;20071;-34
2021/03/03 10:18:13;;;;;;;3.30;2.72;;;18.40;65.30;;;;;;5104112;27;20075;-38
2021/03/03 10:20:48;;;;;;;2.88;2.75;;;18.40;64.60;;;;;;5102533;28;20441;-33
2021/03/03 10:23:24;;;;;;;3.10;2.90;;;18.40;64.80;;;;;;5109357;28;20051;-38
2021/03/03 10:26:00;;;;;;;3.13;2.92;;;18.30;64.90;;;;;;5106187;28;20043;-39
2021/03/03 10:28:27;;;;;;;2.72;2.63;;;18.30;64.90;;;;;;5109017;27;20088;-36
2021/03/03 10:30:57;;;;;;;3.83;3.63;;;18.30;65.10;;;;;;5108765;27;20051;-32
2021/03/03 10:33:32;;;;;;;3.10;2.90;;;18.30;65.10;;;;;;5107495;28;20066;-36
2021/03/03 10:35:59;;;;;;;3.65;3.17;;;18.30;65.40;;;;;;5109525;27;20051;-36
2021/03/03 10:38:25;;;;;;;3.55;3.13;;;18.30;65.30;;;;;;5109291;28;20401;-38
2021/03/03 10:40:52;;;;;;;3.88;3.30;;;18.30;65.30;;;;;;5109404;28;20047;-37
2021/03/03 10:43:19;;;;;;;3.60;3.30;;;18.30;65.50;;;;;;5106145;28;20074;-36
2021/03/03 10:45:45;;;;;;;4.55;3.78;;;18.30;65.50;;;;;;5104655;28;20126;-37
2021/03/03 10:48:30;;;;;;;3.80;3.53;;;18.40;65.50;;;;;;5106985;28;20069;-35
2021/03/03 10:50:58;;;;;;;3.53;3.33;;;18.40;65.60;;;;;;5106027;28;20497;-34
2021/03/03 10:53:24;;;;;;;5.47;3.53;;;18.40;65.60;;;;;;5109282;27;20053;-36
2021/03/03 10:55:50;;;;;;;3.40;3.10;;;18.40;65.60;;;;;;5108034;28;20048;-34
2021/03/03 10:58:15;;;;;;;3.33;3.13;;;18.40;65.70;;;;;;5099962;27;20368;-34
2021/03/03 11:01:03;;;;;;;3.08;2.88;;;18.50;65.60;;;;;;5104769;27;20072;-36
2021/03/03 11:03:29;;;;;;;3.90;2.95;;;18.40;65.70;;;;;;5099422;28;20048;-36
2021/03/03 11:05:59;;;;;;;5.00;3.42;;;18.40;65.70;;;;;;5095939;28;20036;-36
2021/03/03 11:08:25;;;;;;;3.10;2.90;;;18.50;65.80;;;;;;5106856;28;20052;-34
2021/03/03 11:10:52;;;;;;;4.07;2.97;;;18.60;65.50;;;;;;5107711;28;20054;-34
2021/03/03 11:13:18;;;;;;;3.00;2.80;;;18.60;65.40;;;;;;5107615;28;20036;-39
2021/03/03 11:15:44;;;;;;;2.60;2.40;;;18.60;65.40;;;;;;5100027;28;20080;-36
2021/03/03 11:18:10;;;;;;;2.70;2.50;;;18.50;65.20;;;;;;5092551;28;20410;-37
2021/03/03 11:20:36;;;;;;;3.67;2.72;;;18.60;65.00;;;;;;5107077;27;20046;-39
2021/03/03 11:23:02;;;;;;;2.95;2.75;;;18.60;64.90;;;;;;5107496;28;20035;-36
2021/03/03 11:25:28;;;;;;;3.00;2.70;;;18.70;64.80;;;;;;5109176;27;20088;-39
2021/03/03 11:27:53;;;;;;;3.65;2.80;;;18.70;64.80;;;;;;5098177;28;20047;-31
2021/03/03 11:30:19;;;;;;;2.60;2.40;;;18.70;64.70;;;;;;5103289;28;20199;-37
2021/03/03 11:32:44;;;;;;;3.08;2.50;;;18.70;64.00;;;;;;4751503;27;9999949;-38
2021/03/03 11:35:10;;;;;;;3.28;3.08;;;18.80;64.80;;;;;;5107146;28;20045;-34
2021/03/03 11:37:36;;;;;;;3.15;2.65;;;18.80;64.80;;;;;;5100547;28;20074;-36
2021/03/03 11:40:02;;;;;;;3.58;2.53;;;18.90;64.50;;;;;;5102860;28;20072;-36
2021/03/03 11:42:28;;;;;;;3.70;2.40;;;19.00;63.90;;;;;;5098405;28;20631;-32
2021/03/03 11:44:53;;;;;;;3.10;2.83;;;19.00;64.40;;;;;;5096713;28;20051;-34
2021/03/03 11:47:19;;;;;;;3.03;2.75;;;18.90;63.90;;;;;;5102024;27;20054;-35
2021/03/03 11:49:44;;;;;;;2.30;2.20;;;19.00;64.40;;;;;;5094632;28;20080;-34
2021/03/03 11:52:10;;;;;;;2.30;2.20;;;19.10;63.80;;;;;;5101282;28;20040;-42
2021/03/03 11:54:35;;;;;;;2.28;2.13;;;19.20;63.70;;;;;;5099015;28;20040;-34
2021/03/03 11:57:01;;;;;;;2.30;2.10;;;19.20;63.90;;;;;;5099194;28;20050;-39
2021/03/03 11:59:27;;;;;;;2.50;2.30;;;19.20;64.80;;;;;;5101480;28;20051;-39
2021/03/03 12:01:54;;;;;;;2.67;2.47;;;19.20;64.10;;;;;;5097824;28;20046;-39
2021/03/03 12:04:19;;;;;;;2.55;2.35;;;19.20;64.20;;;;;;5098967;28;20122;-34
2021/03/03 12:06:45;;;;;;;2.85;2.65;;;19.20;64.20;;;;;;5097502;28;20131;-38
2021/03/03 12:09:11;;;;;;;3.55;2.30;;;19.20;64.60;;;;;;5096878;28;20044;-37
2021/03/03 12:11:36;;;;;;;2.47;2.22;;;19.10;64.40;;;;;;5099946;28;20443;-38
2021/03/03 12:14:02;;;;;;;2.90;2.58;;;19.20;64.70;;;;;;5096038;28;20040;-37
2021/03/03 12:16:28;;;;;;;2.22;2.13;;;19.20;64.50;;;;;;5097324;28;20036;-37
2021/03/03 12:18:53;;;;;;;2.60;2.42;;;19.10;64.30;;;;;;5099667;28;20048;-37
2021/03/03 12:21:19;;;;;;;2.72;2.53;;;19.20;64.40;;;;;;5093890;28;20056;-35
2021/03/03 12:23:44;;;;;;;5.13;2.40;;;19.20;64.50;;;;;;5093860;28;20418;-35
2021/03/03 12:26:10;;;;;;;2.60;2.45;;;19.20;64.30;;;;;;5098459;28;20140;-39
2021/03/03 12:28:36;;;;;;;2.63;2.42;;;19.20;64.30;;;;;;5095211;28;20055;-39
2021/03/03 12:31:02;;;;;;;2.80;2.47;;;19.20;64.70;;;;;;5102215;28;20496;-38
2021/03/03 12:33:27;;;;;;;2.88;2.67;;;19.30;64.40;;;;;;5099367;28;20044;-36
2021/03/03 12:35:53;;;;;;;2.78;2.58;;;19.20;64.40;;;;;;5091945;28;20038;-42
2021/03/03 12:38:18;;;;;;;2.97;2.50;;;19.20;64.60;;;;;;5108007;28;20512;-38
2021/03/03 12:40:44;;;;;;;2.47;2.30;;;19.20;64.60;;;;;;5092893;28;20074;-37
2021/03/03 12:43:10;;;;;;;3.03;2.75;;;19.20;64.50;;;;;;5100734;28;20119;-41
2021/03/03 12:45:35;;;;;;;2.63;2.30;;;19.20;64.60;;;;;;5095126;28;20607;-37
2021/03/03 12:48:01;;;;;;;2.67;2.40;;;19.20;64.20;;;;;;5096027;28;30785;-38
2021/03/03 12:50:26;;;;;;;2.40;2.17;;;19.20;64.10;;;;;;5104521;28;20051;-37